createdAt,value
2022-10-19T00:01:22.716Z,17.67
2022-10-19T00:03:55.284Z,17.65
2022-10-19T00:06:32.729Z,17.64
2022-10-19T00:09:10.543Z,17.61
2022-10-19T00:11:41.518Z,17.61
2022-10-19T00:14:11.607Z,17.56
2022-10-19T00:16:38.940Z,17.54
2022-10-19T00:19:13.352Z,17.49
2022-10-19T00:21:40.795Z,17.48
2022-10-19T00:24:08.460Z,17.46
2022-10-19T00:26:35.386Z,17.43
2022-10-19T00:29:03.497Z,17.34
2022-10-19T00:31:30.429Z,17.30
2022-10-19T00:33:58.451Z,17.28
2022-10-19T00:36:35.809Z,17.25
2022-10-19T00:39:05.851Z,17.20
2022-10-19T00:41:35.457Z,17.11
2022-10-19T00:44:05.417Z,17.00
2022-10-19T00:46:36.717Z,16.98
2022-10-19T00:49:22.578Z,16.92
2022-10-19T00:51:56.779Z,16.87
2022-10-19T00:54:24.204Z,16.81
2022-10-19T00:56:53.653Z,16.77
2022-10-19T00:59:22.233Z,16.71
2022-10-19T01:01:50.010Z,16.71
2022-10-19T01:04:17.487Z,16.68
2022-10-19T01:06:44.467Z,16.66
2022-10-19T01:09:11.357Z,16.63
2022-10-19T01:12:12.599Z,16.61
2022-10-19T01:15:26.076Z,16.57
2022-10-19T01:18:06.117Z,16.58
2022-10-19T01:20:59.928Z,16.58
2022-10-19T01:24:05.181Z,16.56
2022-10-19T01:26:56.540Z,16.56
2022-10-19T01:30:06.807Z,16.54
2022-10-19T01:33:07.167Z,16.53
2022-10-19T01:35:55.459Z,16.45
2022-10-19T01:38:53.872Z,16.50
2022-10-19T01:41:56.521Z,16.49
2022-10-19T01:44:49.504Z,16.50
2022-10-19T01:47:23.116Z,16.51
2022-10-19T01:50:06.203Z,16.51
2022-10-19T01:52:34.250Z,16.50
2022-10-19T01:55:03.036Z,16.49
2022-10-19T01:57:37.263Z,16.45
2022-10-19T02:00:09.589Z,16.46
2022-10-19T02:02:44.910Z,16.48
2022-10-19T02:05:13.360Z,16.47
2022-10-19T02:07:45.249Z,16.51
2022-10-19T02:10:12.153Z,16.54
2022-10-19T02:12:40.405Z,16.54
2022-10-19T02:15:15.149Z,16.55
2022-10-19T02:17:49.266Z,16.56
2022-10-19T02:20:17.147Z,16.57
2022-10-19T02:22:44.716Z,16.56
2022-10-19T02:25:12.413Z,16.55
2022-10-19T02:27:44.048Z,16.49
2022-10-19T02:30:14.838Z,16.50
2022-10-19T02:32:43.768Z,16.48
2022-10-19T02:35:12.620Z,16.47
2022-10-19T02:37:40.500Z,16.41
2022-10-19T02:40:08.804Z,16.37
2022-10-19T02:42:48.947Z,16.40
2022-10-19T02:45:56.004Z,16.39
2022-10-19T02:48:26.180Z,16.38
2022-10-19T02:50:53.092Z,16.37
2022-10-19T02:53:19.959Z,16.37
2022-10-19T02:55:49.653Z,16.35
2022-10-19T02:58:16.597Z,16.37
2022-10-19T03:00:43.572Z,16.37
2022-10-19T03:03:10.739Z,16.37
2022-10-19T03:05:37.704Z,16.37
2022-10-19T03:08:04.871Z,16.35
2022-10-19T03:10:31.748Z,16.34
2022-10-19T03:12:59.072Z,16.30
2022-10-19T03:15:29.094Z,16.33
2022-10-19T03:17:56.532Z,16.33
2022-10-19T03:20:23.454Z,16.34
2022-10-19T03:22:50.598Z,16.33
2022-10-19T03:25:17.539Z,16.32
2022-10-19T03:27:44.428Z,16.26
2022-10-19T03:30:11.514Z,16.29
2022-10-19T03:32:38.557Z,16.27
2022-10-19T03:35:06.104Z,16.28
2022-10-19T03:37:33.217Z,16.30
2022-10-19T03:40:00.413Z,16.31
2022-10-19T03:42:27.314Z,16.31
2022-10-19T03:44:54.184Z,16.32
2022-10-19T03:47:21.069Z,16.34
2022-10-19T03:49:50.168Z,16.34
2022-10-19T03:52:18.655Z,16.33
2022-10-19T03:54:46.495Z,16.32
2022-10-19T03:57:13.436Z,16.31
2022-10-19T03:59:40.299Z,16.32
2022-10-19T04:02:07.192Z,16.32
2022-10-19T04:04:34.055Z,16.32
2022-10-19T04:07:00.968Z,16.32
2022-10-19T04:09:27.835Z,16.33
2022-10-19T04:11:54.715Z,16.33
2022-10-19T04:14:32.206Z,16.31
2022-10-19T04:17:03.049Z,16.31
2022-10-19T04:19:30.477Z,16.30
2022-10-19T04:21:57.487Z,16.31
2022-10-19T04:24:24.517Z,16.32
2022-10-19T04:26:55.408Z,16.33
2022-10-19T04:29:29.412Z,16.33
2022-10-19T04:31:59.630Z,16.28
2022-10-19T04:34:26.524Z,16.33
2022-10-19T04:36:54.253Z,16.34
2022-10-19T04:39:21.122Z,16.33
2022-10-19T04:41:48.005Z,16.33
2022-10-19T04:44:15.484Z,16.34
2022-10-19T04:46:42.439Z,16.32
2022-10-19T04:49:09.308Z,16.30
2022-10-19T04:51:36.207Z,16.30
2022-10-19T04:54:04.195Z,16.28
2022-10-19T04:56:32.346Z,16.25
2022-10-19T04:59:00.698Z,16.25
2022-10-19T05:01:30.625Z,16.22
2022-10-19T05:04:00.683Z,16.19
2022-10-19T05:06:28.488Z,16.18
2022-10-19T05:08:55.943Z,16.18
2022-10-19T05:11:22.831Z,16.17
2022-10-19T05:13:49.718Z,16.18
2022-10-19T05:16:19.605Z,16.17
2022-10-19T05:18:51.571Z,16.17
2022-10-19T05:21:20.567Z,16.19
2022-10-19T05:23:51.255Z,16.18
2022-10-19T05:26:21.023Z,16.16
2022-10-19T05:28:57.354Z,16.11
2022-10-19T05:31:30.572Z,16.13
2022-10-19T05:33:58.093Z,16.12
2022-10-19T05:36:34.905Z,16.07
2022-10-19T05:39:13.910Z,16.02
2022-10-19T05:41:43.399Z,15.97
2022-10-19T05:44:15.709Z,15.91
2022-10-19T05:46:43.075Z,15.88
2022-10-19T05:49:11.904Z,15.85
2022-10-19T05:51:39.013Z,15.83
2022-10-19T05:54:06.323Z,15.80
2022-10-19T05:56:33.913Z,15.77
2022-10-19T05:59:05.205Z,15.74
2022-10-19T06:01:32.999Z,15.72
2022-10-19T06:04:01.871Z,15.70
2022-10-19T06:06:29.097Z,15.68
2022-10-19T06:08:56.928Z,15.65
2022-10-19T06:11:31.358Z,15.62
2022-10-19T06:13:59.963Z,15.60
2022-10-19T06:16:27.750Z,15.54
2022-10-19T06:18:55.505Z,15.57
2022-10-19T06:21:25.701Z,15.56
2022-10-19T06:23:58.052Z,15.52
2022-10-19T06:26:26.361Z,15.59
2022-10-19T06:28:57.875Z,15.63
2022-10-19T06:31:24.793Z,15.65
2022-10-19T06:33:51.715Z,15.69
2022-10-19T06:36:22.587Z,15.73
2022-10-19T06:38:49.788Z,15.78
2022-10-19T06:41:17.464Z,15.82
2022-10-19T06:43:44.551Z,15.85
2022-10-19T06:46:17.445Z,15.88
2022-10-19T06:48:44.357Z,15.91
2022-10-19T06:51:13.513Z,15.94
2022-10-19T06:53:40.378Z,15.93
2022-10-19T06:56:07.735Z,16.02
2022-10-19T06:58:38.836Z,16.04
2022-10-19T07:01:08.095Z,16.08
2022-10-19T07:03:36.073Z,16.11
2022-10-19T07:06:06.927Z,16.13
2022-10-19T07:08:35.786Z,16.16
2022-10-19T07:11:06.960Z,16.18
2022-10-19T07:13:34.139Z,16.15
2022-10-19T07:16:06.819Z,16.20
2022-10-19T07:18:38.474Z,16.23
2022-10-19T07:21:11.280Z,16.25
2022-10-19T07:23:40.744Z,16.30
2022-10-19T07:26:26.190Z,16.35
2022-10-19T07:28:54.935Z,16.41
2022-10-19T07:31:23.945Z,16.50
2022-10-19T07:34:00.061Z,16.54
2022-10-19T07:36:28.808Z,16.61
2022-10-19T07:38:55.830Z,16.73
2022-10-19T07:41:25.637Z,16.76
2022-10-19T07:43:53.675Z,16.84
2022-10-19T07:46:25.573Z,16.90
2022-10-19T07:48:53.055Z,16.93
2022-10-19T07:51:21.549Z,16.92
2022-10-19T07:53:48.660Z,16.93
2022-10-19T07:56:27.832Z,16.84
2022-10-19T07:58:58.277Z,16.93
2022-10-19T08:01:29.733Z,16.95
2022-10-19T08:04:48.983Z,16.98
2022-10-19T08:06:46.326Z,17.02
2022-10-19T08:09:33.459Z,17.00
2022-10-19T08:12:00.726Z,16.94
2022-10-19T08:14:28.034Z,16.90
2022-10-19T08:16:55.029Z,16.83
2022-10-19T08:19:22.703Z,16.67
2022-10-19T08:21:50.083Z,16.58
2022-10-19T08:24:19.736Z,16.52
2022-10-19T08:26:46.667Z,16.45
2022-10-19T08:29:19.303Z,16.41
2022-10-19T08:31:48.506Z,16.37
2022-10-19T08:34:16.386Z,16.38
2022-10-19T08:36:43.900Z,16.42
2022-10-19T08:39:14.686Z,16.50
2022-10-19T08:42:09.835Z,16.55
2022-10-19T08:45:02.540Z,16.55
2022-10-19T08:47:55.900Z,16.54
2022-10-19T08:50:40.257Z,16.55
2022-10-19T08:53:47.657Z,16.53
2022-10-19T08:56:49.366Z,16.58
2022-10-19T08:59:44.120Z,16.63
2022-10-19T09:02:19.796Z,16.69
2022-10-19T09:04:53.340Z,16.74
2022-10-19T09:07:34.828Z,16.85
2022-10-19T09:10:17.395Z,17.01
2022-10-19T09:13:15.090Z,17.03
2022-10-19T09:15:45.784Z,17.11
2022-10-19T09:18:23.538Z,17.11
2022-10-19T09:21:00.486Z,17.06
2022-10-19T09:23:30.212Z,17.15
2022-10-19T09:25:57.968Z,17.22
2022-10-19T09:28:47.928Z,17.30
2022-10-19T09:31:40.665Z,17.37
2022-10-19T09:34:37.594Z,17.39
2022-10-19T09:37:04.771Z,17.40
2022-10-19T09:39:31.771Z,17.38
2022-10-19T09:42:22.489Z,17.36
2022-10-19T09:44:52.479Z,17.35
2022-10-19T09:47:40.000Z,17.33
2022-10-19T09:50:24.806Z,17.38
2022-10-19T09:52:55.906Z,17.42
2022-10-19T09:55:44.432Z,17.56
2022-10-19T09:58:14.266Z,17.67
2022-10-19T10:00:55.533Z,17.69
2022-10-19T10:03:32.255Z,17.69
2022-10-19T10:06:06.463Z,17.63
2022-10-19T10:08:40.056Z,17.62
2022-10-19T10:11:12.773Z,17.59
2022-10-19T10:13:51.880Z,17.53
2022-10-19T10:16:22.936Z,17.43
2022-10-19T10:19:13.272Z,17.32
2022-10-19T10:21:48.992Z,17.31
2022-10-19T10:24:20.733Z,17.36
2022-10-19T10:26:55.228Z,17.40
2022-10-19T10:29:32.469Z,17.42
2022-10-19T10:32:19.622Z,17.46
2022-10-19T10:35:03.791Z,17.42
2022-10-19T10:37:37.464Z,17.33
2022-10-19T10:40:05.905Z,17.36
2022-10-19T10:42:38.063Z,17.38
2022-10-19T10:45:24.918Z,17.43
2022-10-19T10:47:53.054Z,17.51
2022-10-19T10:50:31.236Z,17.60
2022-10-19T10:53:05.810Z,17.67
2022-10-19T10:55:34.543Z,17.70
2022-10-19T10:58:25.454Z,17.65
2022-10-19T11:00:55.948Z,17.62
2022-10-19T11:03:27.150Z,17.55
2022-10-19T11:05:58.626Z,17.57
2022-10-19T11:08:49.800Z,17.60
2022-10-19T11:11:36.448Z,17.74
2022-10-19T11:14:37.408Z,17.80
2022-10-19T11:17:12.397Z,17.91
2022-10-19T11:19:46.922Z,18.04
2022-10-19T11:22:41.657Z,17.96
2022-10-19T11:25:25.092Z,17.89
2022-10-19T11:28:18.010Z,17.87
2022-10-19T11:31:16.553Z,17.80
2022-10-19T11:34:03.338Z,17.73
2022-10-19T11:37:14.638Z,17.73
2022-10-19T11:40:21.972Z,17.80
2022-10-19T11:43:19.666Z,17.76
2022-10-19T11:46:14.233Z,17.92
2022-10-19T11:49:37.095Z,18.05
2022-10-19T11:52:34.772Z,18.18
2022-10-19T11:55:38.523Z,18.19
2022-10-19T11:59:02.525Z,18.16
2022-10-19T12:01:51.775Z,18.18
2022-10-19T12:04:46.168Z,18.23
2022-10-19T12:07:46.320Z,18.19
2022-10-19T12:10:29.006Z,18.13
2022-10-19T12:13:05.910Z,18.16
2022-10-19T12:15:50.361Z,18.14
2022-10-19T12:18:47.039Z,18.04
2022-10-19T12:21:35.747Z,18.03
2022-10-19T12:24:10.441Z,18.02
2022-10-19T12:26:37.630Z,17.96
2022-10-19T12:29:13.756Z,17.88
2022-10-19T12:31:41.398Z,17.82
2022-10-19T12:34:27.047Z,17.80
2022-10-19T12:37:03.164Z,17.75
2022-10-19T12:40:00.516Z,17.73
2022-10-19T12:42:54.037Z,17.75
2022-10-19T12:45:42.874Z,17.80
2022-10-19T12:48:12.305Z,17.89
2022-10-19T12:51:12.048Z,17.90
2022-10-19T12:53:42.928Z,17.99
2022-10-19T12:56:12.124Z,17.97
2022-10-19T12:58:46.584Z,18.00
2022-10-19T13:01:24.943Z,18.04
2022-10-19T13:04:19.685Z,18.08
2022-10-19T13:06:51.418Z,18.05
2022-10-19T13:09:31.837Z,17.98
2022-10-19T13:12:25.680Z,17.95
2022-10-19T13:15:01.784Z,17.92
2022-10-19T13:17:34.965Z,17.88
2022-10-19T13:20:14.289Z,17.87
2022-10-19T13:23:13.108Z,17.94
2022-10-19T13:25:43.391Z,17.91
2022-10-19T13:28:10.125Z,17.98
2022-10-19T13:30:38.059Z,17.97
2022-10-19T13:33:25.833Z,17.98
2022-10-19T13:35:58.679Z,17.98
2022-10-19T13:38:29.531Z,17.95
2022-10-19T13:41:18.555Z,17.88
2022-10-19T13:44:10.279Z,17.92
2022-10-19T13:46:51.208Z,17.98
2022-10-19T13:49:31.780Z,18.02
2022-10-19T13:53:01.968Z,18.00
2022-10-19T13:56:05.403Z,18.03
2022-10-19T13:58:59.863Z,17.99
2022-10-19T14:02:13.473Z,18.01
2022-10-19T14:05:17.481Z,18.03
2022-10-19T14:08:22.331Z,18.05
2022-10-19T14:11:01.221Z,18.06
2022-10-19T14:13:29.497Z,18.05
2022-10-19T14:16:00.257Z,18.06
2022-10-19T14:18:30.341Z,18.11
2022-10-19T14:21:03.837Z,18.10
2022-10-19T14:23:37.134Z,18.10
2022-10-19T14:26:17.552Z,17.98
2022-10-19T14:28:44.491Z,17.92
2022-10-19T14:31:20.384Z,17.94
2022-10-19T14:33:52.069Z,18.01
2022-10-19T14:36:22.824Z,18.05
2022-10-19T14:38:54.465Z,18.05
2022-10-19T14:41:32.575Z,17.99
2022-10-19T14:44:00.723Z,17.90
2022-10-19T14:46:32.382Z,17.78
2022-10-19T14:49:05.731Z,17.68
2022-10-19T14:51:35.542Z,17.60
2022-10-19T14:54:11.507Z,17.55
2022-10-19T14:56:54.701Z,17.48
2022-10-19T14:59:27.391Z,17.39
2022-10-19T15:01:58.947Z,17.33
2022-10-19T15:04:32.219Z,17.26
2022-10-19T15:07:02.091Z,17.33
2022-10-19T15:09:48.010Z,17.45
2022-10-19T15:12:19.555Z,17.45
2022-10-19T15:14:47.999Z,17.42
2022-10-19T15:17:26.028Z,17.48
2022-10-19T15:19:55.630Z,17.41
2022-10-19T15:22:33.434Z,17.34
2022-10-19T15:25:07.610Z,17.28
2022-10-19T15:27:35.662Z,17.25
2022-10-19T15:30:21.011Z,17.25
2022-10-19T15:32:58.228Z,17.25
2022-10-19T15:35:33.581Z,17.25
2022-10-19T15:38:17.302Z,17.25
2022-10-19T15:40:45.879Z,17.20
2022-10-19T15:43:37.521Z,17.06
2022-10-19T15:46:49.272Z,16.98
2022-10-19T15:49:16.018Z,16.99
2022-10-19T15:51:45.683Z,17.01
2022-10-19T15:54:17.036Z,16.98
2022-10-19T15:56:52.146Z,16.95
2022-10-19T15:59:21.676Z,16.92
2022-10-19T16:01:52.601Z,16.87
2022-10-19T16:04:22.805Z,16.87
2022-10-19T16:06:49.728Z,16.84
2022-10-19T16:09:20.611Z,16.74
2022-10-19T16:11:48.347Z,16.54
2022-10-19T16:14:18.179Z,16.42
2022-10-19T16:16:45.103Z,16.24
2022-10-19T16:19:12.217Z,16.26
2022-10-19T16:21:39.097Z,16.22
2022-10-19T16:24:06.190Z,16.21
2022-10-19T16:26:33.259Z,16.22
2022-10-19T16:29:01.395Z,16.20
2022-10-19T16:31:28.427Z,16.20
2022-10-19T16:33:55.385Z,16.18
2022-10-19T16:36:22.272Z,16.15
2022-10-19T16:38:49.453Z,16.02
2022-10-19T16:41:16.605Z,16.04
2022-10-19T16:43:43.545Z,15.97
2022-10-19T16:46:10.439Z,15.90
2022-10-19T16:48:38.248Z,15.86
2022-10-19T16:51:07.806Z,15.83
2022-10-19T16:53:36.179Z,15.75
2022-10-19T16:56:10.203Z,15.77
2022-10-19T16:58:37.886Z,15.75
2022-10-19T17:01:17.056Z,15.71
2022-10-19T17:03:48.328Z,15.66
2022-10-19T17:06:17.423Z,15.61
2022-10-19T17:09:23.209Z,15.54
2022-10-19T17:11:35.436Z,15.46
2022-10-19T17:14:06.911Z,15.47
2022-10-19T17:16:36.330Z,15.43
2022-10-19T17:19:05.312Z,15.37
2022-10-19T17:21:37.851Z,15.33
2022-10-19T17:24:07.743Z,15.29
2022-10-19T17:26:40.223Z,15.21
2022-10-19T17:29:08.058Z,15.18
2022-10-19T17:31:35.819Z,15.13
2022-10-19T17:34:03.347Z,15.05
2022-10-19T17:36:35.769Z,14.97
2022-10-19T17:39:07.867Z,14.87
2022-10-19T17:41:35.282Z,14.81
2022-10-19T17:44:04.985Z,14.69
2022-10-19T17:46:34.436Z,14.68
2022-10-19T17:49:01.770Z,14.66
2022-10-19T17:51:31.688Z,14.59
2022-10-19T17:54:12.691Z,14.52
2022-10-19T17:56:40.600Z,14.45
2022-10-19T17:59:09.033Z,14.40
2022-10-19T18:01:37.354Z,14.32
2022-10-19T18:04:05.111Z,14.30
2022-10-19T18:06:35.410Z,14.18
2022-10-19T18:09:06.622Z,14.17
2022-10-19T18:11:43.136Z,14.09
2022-10-19T18:14:11.716Z,14.03
2022-10-19T18:16:46.385Z,13.99
2022-10-19T18:19:15.370Z,13.95
2022-10-19T18:21:44.987Z,13.91
2022-10-19T18:24:19.664Z,13.85
2022-10-19T18:26:48.071Z,13.83
2022-10-19T18:29:19.964Z,13.78
2022-10-19T18:31:52.178Z,13.75
2022-10-19T18:34:23.953Z,13.70
2022-10-19T18:36:51.762Z,13.67
2022-10-19T18:39:18.980Z,13.63
2022-10-19T18:41:46.006Z,13.57
2022-10-19T18:44:14.141Z,13.53
2022-10-19T18:46:41.111Z,13.46
2022-10-19T18:49:09.094Z,13.45
2022-10-19T18:51:36.488Z,13.39
2022-10-19T18:54:03.548Z,13.35
2022-10-19T18:56:30.451Z,13.32
2022-10-19T18:58:57.505Z,13.26
2022-10-19T19:01:27.310Z,13.23
2022-10-19T19:03:57.859Z,13.18
2022-10-19T19:06:29.819Z,13.12
2022-10-19T19:08:59.481Z,13.02
2022-10-19T19:11:30.708Z,12.98
2022-10-19T19:14:16.292Z,12.94
2022-10-19T19:16:45.038Z,12.91
2022-10-19T19:19:14.336Z,12.86
2022-10-19T19:21:44.323Z,12.83
2022-10-19T19:24:16.625Z,12.79
2022-10-19T19:26:50.037Z,12.75
2022-10-19T19:29:17.809Z,12.70
2022-10-19T19:31:45.112Z,12.66
2022-10-19T19:34:12.016Z,12.63
2022-10-19T19:36:46.400Z,12.60
2022-10-19T19:39:16.422Z,12.54
2022-10-19T19:41:43.325Z,12.50
2022-10-19T19:44:10.207Z,12.45
2022-10-19T19:46:37.874Z,12.32
2022-10-19T19:49:05.245Z,12.36
2022-10-19T19:51:33.169Z,12.33
2022-10-19T19:54:00.356Z,12.28
2022-10-19T19:56:28.765Z,12.25
2022-10-19T19:59:03.306Z,12.18
2022-10-19T20:01:31.141Z,12.18
2022-10-19T20:03:59.842Z,12.14
2022-10-19T20:06:26.728Z,12.10
2022-10-19T20:08:55.185Z,12.07
2022-10-19T20:11:24.229Z,11.98
2022-10-19T20:13:51.221Z,11.96
2022-10-19T20:16:25.133Z,11.91
2022-10-19T20:19:08.241Z,11.82
2022-10-19T20:21:35.196Z,11.70
2022-10-19T20:24:02.223Z,11.71
2022-10-19T20:26:29.115Z,11.67
2022-10-19T20:28:56.691Z,11.61
2022-10-19T20:31:24.387Z,11.56
2022-10-19T20:33:51.315Z,11.54
2022-10-19T20:36:25.236Z,11.50
2022-10-19T20:38:57.317Z,11.40
2022-10-19T20:41:27.497Z,11.40
2022-10-19T20:43:55.259Z,11.35
2022-10-19T20:46:26.682Z,11.31
2022-10-19T20:48:59.720Z,11.24
2022-10-19T20:51:32.841Z,11.18
2022-10-19T20:54:02.808Z,11.12
2022-10-19T20:56:33.440Z,11.08
2022-10-19T20:59:07.383Z,11.02
2022-10-19T21:01:36.916Z,10.98
2022-10-19T21:04:07.216Z,10.91
2022-10-19T21:06:38.467Z,10.87
2022-10-19T21:09:05.444Z,10.84
2022-10-19T21:11:35.945Z,10.82
2022-10-19T21:14:07.164Z,10.80
2022-10-19T21:16:35.171Z,10.79
2022-10-19T21:19:05.113Z,10.77
2022-10-19T21:21:36.093Z,10.76
2022-10-19T21:24:11.796Z,10.74
2022-10-19T21:26:39.024Z,10.65
2022-10-19T21:29:09.572Z,10.69
2022-10-19T21:31:40.372Z,10.65
2022-10-19T21:34:14.070Z,10.62
2022-10-19T21:36:40.993Z,10.58
2022-10-19T21:39:07.872Z,10.57
2022-10-19T21:41:34.840Z,10.53
2022-10-19T21:44:01.789Z,10.50
2022-10-19T21:46:28.759Z,10.49
2022-10-19T21:48:56.528Z,10.48
2022-10-19T21:51:34.643Z,10.43
2022-10-19T21:54:03.462Z,10.43
2022-10-19T21:56:31.750Z,10.38
2022-10-19T21:58:58.788Z,10.35
2022-10-19T22:01:28.211Z,10.30
2022-10-19T22:04:00.457Z,10.26
2022-10-19T22:06:29.580Z,10.24
2022-10-19T22:08:57.534Z,10.23
2022-10-19T22:11:25.393Z,10.19
2022-10-19T22:13:57.375Z,10.16
2022-10-19T22:16:25.653Z,10.12
2022-10-19T22:18:52.880Z,10.07
2022-10-19T22:21:23.982Z,10.01
2022-10-19T22:24:00.605Z,9.96
2022-10-19T22:26:44.043Z,9.89
2022-10-19T22:29:11.412Z,9.83
2022-10-19T22:31:39.386Z,9.78
2022-10-19T22:34:11.300Z,9.76
2022-10-19T22:36:38.434Z,9.67
2022-10-19T22:39:05.677Z,9.71
2022-10-19T22:41:32.682Z,9.68
2022-10-19T22:43:59.595Z,9.67
2022-10-19T22:46:26.543Z,9.59
2022-10-19T22:48:53.444Z,9.61
2022-10-19T22:51:20.359Z,9.60
2022-10-19T22:53:47.265Z,9.57
2022-10-19T22:56:14.194Z,9.55
2022-10-19T22:58:41.122Z,9.52
2022-10-19T23:01:14.449Z,9.49
2022-10-19T23:03:42.258Z,9.47
2022-10-19T23:06:12.343Z,9.46
2022-10-19T23:08:39.392Z,9.42
2022-10-19T23:11:06.541Z,9.41
2022-10-19T23:13:33.565Z,9.40
2022-10-19T23:16:00.776Z,9.38
2022-10-19T23:18:31.951Z,9.36
2022-10-19T23:21:02.338Z,9.33
2022-10-19T23:23:31.195Z,9.32
2022-10-19T23:26:05.533Z,9.30
2022-10-19T23:28:35.272Z,9.29
2022-10-19T23:31:14.734Z,9.26
2022-10-19T23:33:42.855Z,9.25
2022-10-19T23:36:36.099Z,9.19
2022-10-19T23:39:03.002Z,9.21
2022-10-19T23:41:29.967Z,9.19
2022-10-19T23:43:56.860Z,9.18
2022-10-19T23:46:23.755Z,9.16
2022-10-19T23:48:50.636Z,9.16
2022-10-19T23:51:20.551Z,9.14
2022-10-19T23:53:49.943Z,9.13
2022-10-19T23:56:20.647Z,9.12
2022-10-19T23:58:48.159Z,9.11
